KPHD/PHD METAR and TAF weather

Enter ICAO airport designator
Station Type Date Time Source
KPHD METAR 2022/01/26 13:53 UTC NOAA

KPHD 261353Z AUTO 00000KT 4SM BR OVC032 M17/M19 A3042 RMK AO2 SLP320 I1000 T11721189


Station Type Date Time Source
KPHD Decoded METAR 2022/01/26 13:53 UTC NOAA

NEW PHILADELPHIA CLEVER FLD, OH, United States (KPHD) 40-28N 81-25W 272M
Jan 26, 2022 - 08:53 AM EST / 2022.01.26 1353 UTC
Wind: Calm:0
Visibility: 4 mile(s):0
Sky conditions: overcast
Weather: mist
Temperature: 1.0 F (-17.2 C)
Dew Point: -2.0 F (-18.9 C)
Relative Humidity: 86%
Pressure (altimeter): 30.42 in. Hg (1030 hPa)
ob: KPHD 261353Z AUTO 00000KT 4SM BR OVC032 M17/M19 A3042 RMK AO2 SLP320 I1000 T11721189
cycle: 14

Station Type Date Time Source
KPHD TAF UTC NOAA

Error!

Example: see airport list